sensor_id;sensor_type;location;lat;lon;timestamp;temperature;humidity
20526;DHT22;10421;49.142;9.232;2022-07-05T00:01:43;24.60;57.70
20526;DHT22;10421;49.142;9.232;2022-07-05T00:04:10;24.60;57.80
20526;DHT22;10421;49.142;9.232;2022-07-05T00:06:37;24.60;57.90
20526;DHT22;10421;49.142;9.232;2022-07-05T00:09:26;24.50;57.90
20526;DHT22;10421;49.142;9.232;2022-07-05T00:11:53;24.50;58.00
20526;DHT22;10421;49.142;9.232;2022-07-05T00:14:21;24.40;58.00
20526;DHT22;10421;49.142;9.232;2022-07-05T00:16:48;24.40;58.00
20526;DHT22;10421;49.142;9.232;2022-07-05T00:19:15;24.30;58.20
20526;DHT22;10421;49.142;9.232;2022-07-05T00:21:42;24.30;58.40
20526;DHT22;10421;49.142;9.232;2022-07-05T00:24:09;24.30;58.60
20526;DHT22;10421;49.142;9.232;2022-07-05T00:26:37;24.30;58.90
20526;DHT22;10421;49.142;9.232;2022-07-05T00:29:04;24.30;59.10
20526;DHT22;10421;49.142;9.232;2022-07-05T00:31:31;24.20;59.40
20526;DHT22;10421;49.142;9.232;2022-07-05T00:33:57;24.20;59.50
20526;DHT22;10421;49.142;9.232;2022-07-05T00:36:25;24.10;59.70
20526;DHT22;10421;49.142;9.232;2022-07-05T00:38:51;24.10;59.80
20526;DHT22;10421;49.142;9.232;2022-07-05T00:41:18;24.00;59.70
20526;DHT22;10421;49.142;9.232;2022-07-05T00:43:54;24.00;59.80
20526;DHT22;10421;49.142;9.232;2022-07-05T00:46:22;24.00;59.70
20526;DHT22;10421;49.142;9.232;2022-07-05T00:48:48;24.00;59.80
20526;DHT22;10421;49.142;9.232;2022-07-05T00:51:16;24.00;59.80
20526;DHT22;10421;49.142;9.232;2022-07-05T00:53:43;23.90;59.70
20526;DHT22;10421;49.142;9.232;2022-07-05T00:56:10;23.90;59.70
20526;DHT22;10421;49.142;9.232;2022-07-05T00:58:37;23.90;59.70
20526;DHT22;10421;49.142;9.232;2022-07-05T01:01:08;23.80;59.70
20526;DHT22;10421;49.142;9.232;2022-07-05T01:03:35;23.80;59.90
20526;DHT22;10421;49.142;9.232;2022-07-05T01:06:06;23.80;59.90
20526;DHT22;10421;49.142;9.232;2022-07-05T01:08:34;23.80;59.90
20526;DHT22;10421;49.142;9.232;2022-07-05T01:11:02;23.80;59.90
20526;DHT22;10421;49.142;9.232;2022-07-05T01:13:29;23.70;60.00
20526;DHT22;10421;49.142;9.232;2022-07-05T01:15:57;23.60;60.20
20526;DHT22;10421;49.142;9.232;2022-07-05T01:18:26;23.60;60.40
20526;DHT22;10421;49.142;9.232;2022-07-05T01:20:53;23.50;60.50
20526;DHT22;10421;49.142;9.232;2022-07-05T01:23:22;23.50;60.60
20526;DHT22;10421;49.142;9.232;2022-07-05T01:25:50;23.50;60.80
20526;DHT22;10421;49.142;9.232;2022-07-05T01:28:18;23.50;61.00
20526;DHT22;10421;49.142;9.232;2022-07-05T01:30:45;23.50;61.20
20526;DHT22;10421;49.142;9.232;2022-07-05T01:33:13;23.50;61.50
20526;DHT22;10421;49.142;9.232;2022-07-05T01:35:40;23.40;61.80
20526;DHT22;10421;49.142;9.232;2022-07-05T01:38:09;23.30;62.00
20526;DHT22;10421;49.142;9.232;2022-07-05T01:40:38;23.30;62.40
20526;DHT22;10421;49.142;9.232;2022-07-05T01:43:05;23.20;62.40
20526;DHT22;10421;49.142;9.232;2022-07-05T01:45:32;23.20;62.50
20526;DHT22;10421;49.142;9.232;2022-07-05T01:48:09;23.20;62.70
20526;DHT22;10421;49.142;9.232;2022-07-05T01:50:40;23.20;62.80
20526;DHT22;10421;49.142;9.232;2022-07-05T01:53:11;23.20;63.00
20526;DHT22;10421;49.142;9.232;2022-07-05T01:55:40;23.20;63.10
20526;DHT22;10421;49.142;9.232;2022-07-05T01:58:07;23.20;63.30
20526;DHT22;10421;49.142;9.232;2022-07-05T02:00:42;23.20;63.30
20526;DHT22;10421;49.142;9.232;2022-07-05T02:03:09;23.20;63.50
20526;DHT22;10421;49.142;9.232;2022-07-05T02:05:37;23.10;63.50
20526;DHT22;10421;49.142;9.232;2022-07-05T02:08:04;23.00;63.70
20526;DHT22;10421;49.142;9.232;2022-07-05T02:10:31;22.90;64.00
20526;DHT22;10421;49.142;9.232;2022-07-05T02:12:59;22.90;64.20
20526;DHT22;10421;49.142;9.232;2022-07-05T02:15:26;22.80;64.40
20526;DHT22;10421;49.142;9.232;2022-07-05T02:17:53;22.80;64.70
20526;DHT22;10421;49.142;9.232;2022-07-05T02:20:20;22.80;65.60
20526;DHT22;10421;49.142;9.232;2022-07-05T02:22:47;22.70;64.90
20526;DHT22;10421;49.142;9.232;2022-07-05T02:25:14;22.70;65.10
20526;DHT22;10421;49.142;9.232;2022-07-05T02:27:41;22.60;65.20
20526;DHT22;10421;49.142;9.232;2022-07-05T02:30:10;22.60;65.50
20526;DHT22;10421;49.142;9.232;2022-07-05T02:32:37;22.50;65.60
20526;DHT22;10421;49.142;9.232;2022-07-05T02:35:05;22.50;65.80
20526;DHT22;10421;49.142;9.232;2022-07-05T02:37:33;22.40;66.10
20526;DHT22;10421;49.142;9.232;2022-07-05T02:40:00;22.40;66.30
20526;DHT22;10421;49.142;9.232;2022-07-05T02:42:27;22.30;66.40
20526;DHT22;10421;49.142;9.232;2022-07-05T02:44:54;22.30;66.60
20526;DHT22;10421;49.142;9.232;2022-07-05T02:47:22;22.20;66.80
20526;DHT22;10421;49.142;9.232;2022-07-05T02:49:49;22.20;67.10
20526;DHT22;10421;49.142;9.232;2022-07-05T02:52:17;22.20;67.40
20526;DHT22;10421;49.142;9.232;2022-07-05T02:54:44;22.10;67.60
20526;DHT22;10421;49.142;9.232;2022-07-05T02:57:11;22.10;67.80
20526;DHT22;10421;49.142;9.232;2022-07-05T02:59:38;22.10;68.10
20526;DHT22;10421;49.142;9.232;2022-07-05T03:02:05;22.00;68.30
20526;DHT22;10421;49.142;9.232;2022-07-05T03:04:33;22.00;68.60
20526;DHT22;10421;49.142;9.232;2022-07-05T03:07:00;22.00;68.90
20526;DHT22;10421;49.142;9.232;2022-07-05T03:09:27;21.90;69.10
20526;DHT22;10421;49.142;9.232;2022-07-05T03:11:54;21.80;69.30
20526;DHT22;10421;49.142;9.232;2022-07-05T03:14:21;21.80;69.70
20526;DHT22;10421;49.142;9.232;2022-07-05T03:16:48;21.70;69.90
20526;DHT22;10421;49.142;9.232;2022-07-05T03:19:15;21.70;70.30
20526;DHT22;10421;49.142;9.232;2022-07-05T03:21:43;21.70;70.40
20526;DHT22;10421;49.142;9.232;2022-07-05T03:24:10;21.70;70.70
20526;DHT22;10421;49.142;9.232;2022-07-05T03:26:37;21.70;71.00
20526;DHT22;10421;49.142;9.232;2022-07-05T03:29:04;21.70;71.10
20526;DHT22;10421;49.142;9.232;2022-07-05T03:31:31;21.70;71.30
20526;DHT22;10421;49.142;9.232;2022-07-05T03:33:58;21.70;71.50
20526;DHT22;10421;49.142;9.232;2022-07-05T03:36:25;21.60;71.60
20526;DHT22;10421;49.142;9.232;2022-07-05T03:38:53;21.60;71.80
20526;DHT22;10421;49.142;9.232;2022-07-05T03:41:20;21.60;72.30
20526;DHT22;10421;49.142;9.232;2022-07-05T03:43:47;21.50;72.60
20526;DHT22;10421;49.142;9.232;2022-07-05T03:46:14;21.40;72.80
20526;DHT22;10421;49.142;9.232;2022-07-05T03:48:41;21.40;73.10
20526;DHT22;10421;49.142;9.232;2022-07-05T03:51:08;21.40;73.40
20526;DHT22;10421;49.142;9.232;2022-07-05T03:53:36;21.40;73.70
20526;DHT22;10421;49.142;9.232;2022-07-05T03:56:04;21.30;73.90
20526;DHT22;10421;49.142;9.232;2022-07-05T03:58:31;21.30;74.20
20526;DHT22;10421;49.142;9.232;2022-07-05T04:00:58;21.30;74.40
20526;DHT22;10421;49.142;9.232;2022-07-05T04:03:25;21.20;74.60
20526;DHT22;10421;49.142;9.232;2022-07-05T04:05:52;21.20;74.70
20526;DHT22;10421;49.142;9.232;2022-07-05T04:08:19;21.20;75.00
20526;DHT22;10421;49.142;9.232;2022-07-05T04:10:47;21.20;75.10
20526;DHT22;10421;49.142;9.232;2022-07-05T04:13:16;21.20;75.20
20526;DHT22;10421;49.142;9.232;2022-07-05T04:15:43;21.20;75.30
20526;DHT22;10421;49.142;9.232;2022-07-05T04:18:10;21.20;75.50
20526;DHT22;10421;49.142;9.232;2022-07-05T04:20:36;21.30;76.50
20526;DHT22;10421;49.142;9.232;2022-07-05T04:23:03;21.30;75.80
20526;DHT22;10421;49.142;9.232;2022-07-05T04:25:30;21.30;75.80
20526;DHT22;10421;49.142;9.232;2022-07-05T04:27:57;21.40;76.00
20526;DHT22;10421;49.142;9.232;2022-07-05T04:30:27;21.40;76.00
20526;DHT22;10421;49.142;9.232;2022-07-05T04:32:54;21.40;76.00
20526;DHT22;10421;49.142;9.232;2022-07-05T04:35:21;21.40;75.90
20526;DHT22;10421;49.142;9.232;2022-07-05T04:37:48;21.40;75.90
20526;DHT22;10421;49.142;9.232;2022-07-05T04:40:16;21.40;75.90
20526;DHT22;10421;49.142;9.232;2022-07-05T04:42:43;21.40;76.00
20526;DHT22;10421;49.142;9.232;2022-07-05T04:45:10;21.40;76.10
20526;DHT22;10421;49.142;9.232;2022-07-05T04:47:38;21.50;76.10
20526;DHT22;10421;49.142;9.232;2022-07-05T04:50:06;21.50;76.10
20526;DHT22;10421;49.142;9.232;2022-07-05T04:52:33;21.50;76.10
20526;DHT22;10421;49.142;9.232;2022-07-05T04:55:00;21.60;76.30
20526;DHT22;10421;49.142;9.232;2022-07-05T04:57:27;21.60;76.30
20526;DHT22;10421;49.142;9.232;2022-07-05T04:59:54;21.70;76.40
20526;DHT22;10421;49.142;9.232;2022-07-05T05:02:21;21.70;76.40
20526;DHT22;10421;49.142;9.232;2022-07-05T05:04:49;21.70;76.40
20526;DHT22;10421;49.142;9.232;2022-07-05T05:07:16;21.80;76.70
20526;DHT22;10421;49.142;9.232;2022-07-05T05:09:43;21.90;76.80
20526;DHT22;10421;49.142;9.232;2022-07-05T05:12:10;21.90;76.60
20526;DHT22;10421;49.142;9.232;2022-07-05T05:14:37;21.90;76.60
20526;DHT22;10421;49.142;9.232;2022-07-05T05:17:04;22.00;76.60
20526;DHT22;10421;49.142;9.232;2022-07-05T05:19:31;22.00;76.60
20526;DHT22;10421;49.142;9.232;2022-07-05T05:21:59;22.10;77.40
20526;DHT22;10421;49.142;9.232;2022-07-05T05:24:26;22.10;76.60
20526;DHT22;10421;49.142;9.232;2022-07-05T05:26:53;22.20;76.70
20526;DHT22;10421;49.142;9.232;2022-07-05T05:29:20;22.20;76.60
20526;DHT22;10421;49.142;9.232;2022-07-05T05:31:47;22.20;76.60
20526;DHT22;10421;49.142;9.232;2022-07-05T05:34:14;22.30;76.60
20526;DHT22;10421;49.142;9.232;2022-07-05T05:36:41;22.30;76.30
20526;DHT22;10421;49.142;9.232;2022-07-05T05:39:09;22.40;76.10
20526;DHT22;10421;49.142;9.232;2022-07-05T05:41:36;22.50;75.90
20526;DHT22;10421;49.142;9.232;2022-07-05T05:44:04;22.50;75.70
20526;DHT22;10421;49.142;9.232;2022-07-05T05:46:31;22.60;75.60
20526;DHT22;10421;49.142;9.232;2022-07-05T05:48:57;22.60;75.40
20526;DHT22;10421;49.142;9.232;2022-07-05T05:51:24;22.70;75.10
20526;DHT22;10421;49.142;9.232;2022-07-05T05:53:52;22.70;74.50
20526;DHT22;10421;49.142;9.232;2022-07-05T05:56:20;22.70;74.20
20526;DHT22;10421;49.142;9.232;2022-07-05T05:58:47;22.70;74.20
20526;DHT22;10421;49.142;9.232;2022-07-05T06:01:14;22.80;74.10
20526;DHT22;10421;49.142;9.232;2022-07-05T06:03:40;22.80;73.80
20526;DHT22;10421;49.142;9.232;2022-07-05T06:06:07;22.90;73.90
20526;DHT22;10421;49.142;9.232;2022-07-05T06:08:34;22.90;73.70
20526;DHT22;10421;49.142;9.232;2022-07-05T06:11:01;23.00;73.60
20526;DHT22;10421;49.142;9.232;2022-07-05T06:13:31;23.10;73.40
20526;DHT22;10421;49.142;9.232;2022-07-05T06:15:58;23.10;73.10
20526;DHT22;10421;49.142;9.232;2022-07-05T06:18:25;23.10;72.80
20526;DHT22;10421;49.142;9.232;2022-07-05T06:20:52;23.10;72.70
20526;DHT22;10421;49.142;9.232;2022-07-05T06:23:19;23.20;72.80
20526;DHT22;10421;49.142;9.232;2022-07-05T06:25:46;23.20;72.70
20526;DHT22;10421;49.142;9.232;2022-07-05T06:28:13;23.20;72.70
20526;DHT22;10421;49.142;9.232;2022-07-05T06:30:42;23.30;72.60
20526;DHT22;10421;49.142;9.232;2022-07-05T06:33:09;23.30;72.30
20526;DHT22;10421;49.142;9.232;2022-07-05T06:35:36;23.40;71.90
20526;DHT22;10421;49.142;9.232;2022-07-05T06:38:05;23.50;71.60
20526;DHT22;10421;49.142;9.232;2022-07-05T06:40:34;23.50;70.90
20526;DHT22;10421;49.142;9.232;2022-07-05T06:43:03;23.60;70.60
20526;DHT22;10421;49.142;9.232;2022-07-05T06:45:31;23.60;69.60
20526;DHT22;10421;49.142;9.232;2022-07-05T06:48:01;23.70;70.10
20526;DHT22;10421;49.142;9.232;2022-07-05T06:50:29;23.70;68.90
20526;DHT22;10421;49.142;9.232;2022-07-05T06:52:56;23.80;68.80
20526;DHT22;10421;49.142;9.232;2022-07-05T06:55:24;23.80;68.30
20526;DHT22;10421;49.142;9.232;2022-07-05T06:57:56;23.90;67.70
20526;DHT22;10421;49.142;9.232;2022-07-05T07:00:24;23.90;67.40
20526;DHT22;10421;49.142;9.232;2022-07-05T07:02:51;24.00;67.10
20526;DHT22;10421;49.142;9.232;2022-07-05T07:05:20;24.00;66.80
20526;DHT22;10421;49.142;9.232;2022-07-05T07:07:47;24.10;66.40
20526;DHT22;10421;49.142;9.232;2022-07-05T07:10:32;24.20;66.50
20526;DHT22;10421;49.142;9.232;2022-07-05T07:12:59;24.20;65.60
20526;DHT22;10421;49.142;9.232;2022-07-05T07:15:27;24.30;64.90
20526;DHT22;10421;49.142;9.232;2022-07-05T07:17:54;24.40;64.80
20526;DHT22;10421;49.142;9.232;2022-07-05T07:20:23;24.40;64.30
20526;DHT22;10421;49.142;9.232;2022-07-05T07:22:50;24.50;64.20
20526;DHT22;10421;49.142;9.232;2022-07-05T07:25:17;24.60;64.00
20526;DHT22;10421;49.142;9.232;2022-07-05T07:27:47;24.60;62.80
20526;DHT22;10421;49.142;9.232;2022-07-05T07:30:16;24.70;62.60
20526;DHT22;10421;49.142;9.232;2022-07-05T07:32:44;24.80;62.50
20526;DHT22;10421;49.142;9.232;2022-07-05T07:35:12;24.90;62.10
20526;DHT22;10421;49.142;9.232;2022-07-05T07:37:40;25.00;62.00
20526;DHT22;10421;49.142;9.232;2022-07-05T07:40:08;25.10;62.20
20526;DHT22;10421;49.142;9.232;2022-07-05T07:42:35;25.20;61.80
20526;DHT22;10421;49.142;9.232;2022-07-05T07:45:03;25.20;60.90
20526;DHT22;10421;49.142;9.232;2022-07-05T07:47:30;25.30;59.10
20526;DHT22;10421;49.142;9.232;2022-07-05T07:49:57;25.30;58.90
20526;DHT22;10421;49.142;9.232;2022-07-05T07:52:24;25.30;58.10
20526;DHT22;10421;49.142;9.232;2022-07-05T07:54:53;25.40;57.90
20526;DHT22;10421;49.142;9.232;2022-07-05T07:57:19;25.40;57.50
20526;DHT22;10421;49.142;9.232;2022-07-05T07:59:47;25.40;57.90
20526;DHT22;10421;49.142;9.232;2022-07-05T08:02:13;25.50;58.50
20526;DHT22;10421;49.142;9.232;2022-07-05T08:04:40;25.50;58.40
20526;DHT22;10421;49.142;9.232;2022-07-05T08:07:07;25.60;58.60
20526;DHT22;10421;49.142;9.232;2022-07-05T08:09:34;25.70;58.50
20526;DHT22;10421;49.142;9.232;2022-07-05T08:12:03;25.70;58.40
20526;DHT22;10421;49.142;9.232;2022-07-05T08:14:31;25.80;58.20
20526;DHT22;10421;49.142;9.232;2022-07-05T08:16:58;25.90;58.60
20526;DHT22;10421;49.142;9.232;2022-07-05T08:19:25;25.90;58.50
20526;DHT22;10421;49.142;9.232;2022-07-05T08:22:09;26.10;58.50
20526;DHT22;10421;49.142;9.232;2022-07-05T08:24:38;26.20;58.00
20526;DHT22;10421;49.142;9.232;2022-07-05T08:27:07;26.30;57.70
20526;DHT22;10421;49.142;9.232;2022-07-05T08:29:34;26.40;56.90
20526;DHT22;10421;49.142;9.232;2022-07-05T08:32:02;26.40;57.10
20526;DHT22;10421;49.142;9.232;2022-07-05T08:34:29;26.40;57.40
20526;DHT22;10421;49.142;9.232;2022-07-05T08:36:55;26.50;57.70
20526;DHT22;10421;49.142;9.232;2022-07-05T08:39:22;26.60;57.50
20526;DHT22;10421;49.142;9.232;2022-07-05T08:41:51;26.70;57.70
20526;DHT22;10421;49.142;9.232;2022-07-05T08:44:21;26.80;57.50
20526;DHT22;10421;49.142;9.232;2022-07-05T08:46:49;26.90;57.20
20526;DHT22;10421;49.142;9.232;2022-07-05T08:49:21;26.90;56.90
20526;DHT22;10421;49.142;9.232;2022-07-05T08:51:49;27.00;57.40
20526;DHT22;10421;49.142;9.232;2022-07-05T08:54:17;27.10;57.10
20526;DHT22;10421;49.142;9.232;2022-07-05T08:56:44;27.20;57.10
20526;DHT22;10421;49.142;9.232;2022-07-05T08:59:11;27.30;56.40
20526;DHT22;10421;49.142;9.232;2022-07-05T09:01:40;27.40;56.10
20526;DHT22;10421;49.142;9.232;2022-07-05T09:04:08;27.60;55.90
20526;DHT22;10421;49.142;9.232;2022-07-05T09:06:38;27.70;55.30
20526;DHT22;10421;49.142;9.232;2022-07-05T09:09:06;27.80;55.30
20526;DHT22;10421;49.142;9.232;2022-07-05T09:11:36;27.90;55.40
20526;DHT22;10421;49.142;9.232;2022-07-05T09:14:04;28.00;55.60
20526;DHT22;10421;49.142;9.232;2022-07-05T09:16:33;28.00;55.40
20526;DHT22;10421;49.142;9.232;2022-07-05T09:19:07;28.10;55.00
20526;DHT22;10421;49.142;9.232;2022-07-05T09:21:34;28.30;54.50
20526;DHT22;10421;49.142;9.232;2022-07-05T09:24:04;28.30;53.40
20526;DHT22;10421;49.142;9.232;2022-07-05T09:26:35;28.30;53.20
20526;DHT22;10421;49.142;9.232;2022-07-05T09:29:04;28.30;52.70
20526;DHT22;10421;49.142;9.232;2022-07-05T09:31:32;28.40;52.00
20526;DHT22;10421;49.142;9.232;2022-07-05T09:34:10;28.50;50.90
20526;DHT22;10421;49.142;9.232;2022-07-05T09:36:50;28.60;51.30
20526;DHT22;10421;49.142;9.232;2022-07-05T09:39:18;28.70;50.40
20526;DHT22;10421;49.142;9.232;2022-07-05T09:41:45;28.80;50.00
20526;DHT22;10421;49.142;9.232;2022-07-05T09:44:24;28.80;50.30
20526;DHT22;10421;49.142;9.232;2022-07-05T09:47:07;28.90;50.60
20526;DHT22;10421;49.142;9.232;2022-07-05T09:49:38;29.00;50.40
20526;DHT22;10421;49.142;9.232;2022-07-05T09:52:05;29.10;49.20
20526;DHT22;10421;49.142;9.232;2022-07-05T09:54:32;29.30;49.10
20526;DHT22;10421;49.142;9.232;2022-07-05T09:56:59;29.50;49.00
20526;DHT22;10421;49.142;9.232;2022-07-05T09:59:26;29.50;48.70
20526;DHT22;10421;49.142;9.232;2022-07-05T10:01:53;29.40;48.70
20526;DHT22;10421;49.142;9.232;2022-07-05T10:04:20;29.30;48.00
20526;DHT22;10421;49.142;9.232;2022-07-05T10:06:48;29.20;48.20
20526;DHT22;10421;49.142;9.232;2022-07-05T10:09:16;29.30;47.90
20526;DHT22;10421;49.142;9.232;2022-07-05T10:11:45;29.30;47.40
20526;DHT22;10421;49.142;9.232;2022-07-05T10:14:16;29.30;47.20
20526;DHT22;10421;49.142;9.232;2022-07-05T10:16:54;29.30;46.80
20526;DHT22;10421;49.142;9.232;2022-07-05T10:19:23;29.30;46.40
20526;DHT22;10421;49.142;9.232;2022-07-05T10:21:55;29.40;46.20
20526;DHT22;10421;49.142;9.232;2022-07-05T10:24:22;29.50;45.80
20526;DHT22;10421;49.142;9.232;2022-07-05T10:26:49;29.50;45.30
20526;DHT22;10421;49.142;9.232;2022-07-05T10:29:17;29.50;45.20
20526;DHT22;10421;49.142;9.232;2022-07-05T10:31:44;29.40;44.90
20526;DHT22;10421;49.142;9.232;2022-07-05T10:34:13;29.40;45.40
20526;DHT22;10421;49.142;9.232;2022-07-05T10:36:40;29.40;45.80
20526;DHT22;10421;49.142;9.232;2022-07-05T10:39:10;29.60;45.80
20526;DHT22;10421;49.142;9.232;2022-07-05T10:41:37;29.80;45.50
20526;DHT22;10421;49.142;9.232;2022-07-05T10:44:05;29.90;45.40
20526;DHT22;10421;49.142;9.232;2022-07-05T10:46:34;30.10;45.20
20526;DHT22;10421;49.142;9.232;2022-07-05T10:49:13;30.30;45.50
20526;DHT22;10421;49.142;9.232;2022-07-05T10:51:41;30.50;44.60
20526;DHT22;10421;49.142;9.232;2022-07-05T10:54:09;30.60;44.10
20526;DHT22;10421;49.142;9.232;2022-07-05T10:56:37;30.70;43.90
20526;DHT22;10421;49.142;9.232;2022-07-05T10:59:06;30.70;43.60
20526;DHT22;10421;49.142;9.232;2022-07-05T11:01:39;30.80;43.40
20526;DHT22;10421;49.142;9.232;2022-07-05T11:04:15;30.80;42.80
20526;DHT22;10421;49.142;9.232;2022-07-05T11:06:45;30.70;42.70
20526;DHT22;10421;49.142;9.232;2022-07-05T11:09:18;30.70;42.30
20526;DHT22;10421;49.142;9.232;2022-07-05T11:11:46;30.60;42.20
20526;DHT22;10421;49.142;9.232;2022-07-05T11:14:36;30.70;41.80
20526;DHT22;10421;49.142;9.232;2022-07-05T11:17:17;30.80;42.10
20526;DHT22;10421;49.142;9.232;2022-07-05T11:20:09;30.80;41.50
20526;DHT22;10421;49.142;9.232;2022-07-05T11:22:37;30.80;41.50
20526;DHT22;10421;49.142;9.232;2022-07-05T11:25:07;30.90;41.30
20526;DHT22;10421;49.142;9.232;2022-07-05T11:27:35;31.00;41.30
20526;DHT22;10421;49.142;9.232;2022-07-05T11:30:04;31.10;41.00
20526;DHT22;10421;49.142;9.232;2022-07-05T11:32:48;31.00;41.00
20526;DHT22;10421;49.142;9.232;2022-07-05T11:35:16;31.10;40.90
20526;DHT22;10421;49.142;9.232;2022-07-05T11:38:02;31.10;41.40
20526;DHT22;10421;49.142;9.232;2022-07-05T11:40:33;31.10;41.80
20526;DHT22;10421;49.142;9.232;2022-07-05T11:43:01;31.10;41.70
20526;DHT22;10421;49.142;9.232;2022-07-05T11:45:29;31.20;41.90
20526;DHT22;10421;49.142;9.232;2022-07-05T11:47:57;31.30;41.00
20526;DHT22;10421;49.142;9.232;2022-07-05T11:50:29;31.40;40.50
20526;DHT22;10421;49.142;9.232;2022-07-05T11:52:56;31.40;40.50
20526;DHT22;10421;49.142;9.232;2022-07-05T11:55:25;31.30;41.20
20526;DHT22;10421;49.142;9.232;2022-07-05T11:57:55;31.20;41.00
20526;DHT22;10421;49.142;9.232;2022-07-05T12:00:27;31.20;41.10
20526;DHT22;10421;49.142;9.232;2022-07-05T12:02:54;31.30;41.30
20526;DHT22;10421;49.142;9.232;2022-07-05T12:05:21;31.50;41.70
20526;DHT22;10421;49.142;9.232;2022-07-05T12:07:49;31.60;41.20
20526;DHT22;10421;49.142;9.232;2022-07-05T12:10:17;31.70;40.10
20526;DHT22;10421;49.142;9.232;2022-07-05T12:13:05;31.80;40.10
20526;DHT22;10421;49.142;9.232;2022-07-05T12:15:33;31.90;39.90
20526;DHT22;10421;49.142;9.232;2022-07-05T12:18:01;32.00;39.10
20526;DHT22;10421;49.142;9.232;2022-07-05T12:20:30;32.20;38.60
20526;DHT22;10421;49.142;9.232;2022-07-05T12:22:58;32.30;38.70
20526;DHT22;10421;49.142;9.232;2022-07-05T12:25:26;32.40;39.10
20526;DHT22;10421;49.142;9.232;2022-07-05T12:27:55;32.40;38.20
20526;DHT22;10421;49.142;9.232;2022-07-05T12:30:24;32.20;38.60
20526;DHT22;10421;49.142;9.232;2022-07-05T12:32:55;32.00;39.40
20526;DHT22;10421;49.142;9.232;2022-07-05T12:35:27;31.90;40.20
20526;DHT22;10421;49.142;9.232;2022-07-05T12:37:55;31.80;40.40
20526;DHT22;10421;49.142;9.232;2022-07-05T12:40:23;31.80;40.40
20526;DHT22;10421;49.142;9.232;2022-07-05T12:43:01;31.80;40.20
20526;DHT22;10421;49.142;9.232;2022-07-05T12:45:29;31.90;39.40
20526;DHT22;10421;49.142;9.232;2022-07-05T12:47:58;31.90;38.80
20526;DHT22;10421;49.142;9.232;2022-07-05T12:50:27;31.90;38.80
20526;DHT22;10421;49.142;9.232;2022-07-05T12:52:59;31.90;39.10
20526;DHT22;10421;49.142;9.232;2022-07-05T12:55:34;32.00;39.10
20526;DHT22;10421;49.142;9.232;2022-07-05T12:58:19;32.00;39.40
20526;DHT22;10421;49.142;9.232;2022-07-05T13:00:47;32.10;38.40
20526;DHT22;10421;49.142;9.232;2022-07-05T13:03:14;32.10;38.10
20526;DHT22;10421;49.142;9.232;2022-07-05T13:05:41;32.10;37.60
20526;DHT22;10421;49.142;9.232;2022-07-05T13:08:08;32.30;37.40
20526;DHT22;10421;49.142;9.232;2022-07-05T13:10:45;32.40;37.40
20526;DHT22;10421;49.142;9.232;2022-07-05T13:13:13;32.50;37.10
20526;DHT22;10421;49.142;9.232;2022-07-05T13:15:42;32.50;37.10
20526;DHT22;10421;49.142;9.232;2022-07-05T13:18:10;32.60;37.40
20526;DHT22;10421;49.142;9.232;2022-07-05T13:20:37;32.70;36.70
20526;DHT22;10421;49.142;9.232;2022-07-05T13:23:04;32.80;35.60
20526;DHT22;10421;49.142;9.232;2022-07-05T13:25:31;32.90;35.10
20526;DHT22;10421;49.142;9.232;2022-07-05T13:27:58;33.00;34.70
20526;DHT22;10421;49.142;9.232;2022-07-05T13:30:25;32.90;33.80
20526;DHT22;10421;49.142;9.232;2022-07-05T13:32:52;32.80;34.10
20526;DHT22;10421;49.142;9.232;2022-07-05T13:35:20;32.70;34.50
20526;DHT22;10421;49.142;9.232;2022-07-05T13:37:47;32.70;34.40
20526;DHT22;10421;49.142;9.232;2022-07-05T13:40:14;32.70;34.70
20526;DHT22;10421;49.142;9.232;2022-07-05T13:42:41;32.60;34.80
20526;DHT22;10421;49.142;9.232;2022-07-05T13:45:09;32.50;34.90
20526;DHT22;10421;49.142;9.232;2022-07-05T13:47:36;32.40;35.50
20526;DHT22;10421;49.142;9.232;2022-07-05T13:50:03;32.20;36.00
20526;DHT22;10421;49.142;9.232;2022-07-05T13:52:48;32.20;36.20
20526;DHT22;10421;49.142;9.232;2022-07-05T13:55:16;32.20;36.30
20526;DHT22;10421;49.142;9.232;2022-07-05T13:57:43;32.20;36.70
20526;DHT22;10421;49.142;9.232;2022-07-05T14:00:12;32.30;36.30
20526;DHT22;10421;49.142;9.232;2022-07-05T14:02:39;32.20;36.20
20526;DHT22;10421;49.142;9.232;2022-07-05T14:05:07;32.10;36.70
20526;DHT22;10421;49.142;9.232;2022-07-05T14:07:34;32.20;37.20
20526;DHT22;10421;49.142;9.232;2022-07-05T14:10:02;32.20;36.90
20526;DHT22;10421;49.142;9.232;2022-07-05T14:12:29;32.10;36.60
20526;DHT22;10421;49.142;9.232;2022-07-05T14:14:57;32.10;36.80
20526;DHT22;10421;49.142;9.232;2022-07-05T14:17:24;32.20;37.10
20526;DHT22;10421;49.142;9.232;2022-07-05T14:19:50;32.30;37.10
20526;DHT22;10421;49.142;9.232;2022-07-05T14:22:17;32.50;37.00
20526;DHT22;10421;49.142;9.232;2022-07-05T14:24:44;32.60;37.30
20526;DHT22;10421;49.142;9.232;2022-07-05T14:27:13;32.70;37.80
20526;DHT22;10421;49.142;9.232;2022-07-05T14:29:39;32.70;37.20
20526;DHT22;10421;49.142;9.232;2022-07-05T14:32:07;32.70;36.80
20526;DHT22;10421;49.142;9.232;2022-07-05T14:34:34;32.70;36.90
20526;DHT22;10421;49.142;9.232;2022-07-05T14:37:01;32.80;37.30
20526;DHT22;10421;49.142;9.232;2022-07-05T14:39:27;32.90;36.90
20526;DHT22;10421;49.142;9.232;2022-07-05T14:41:54;33.00;37.20
20526;DHT22;10421;49.142;9.232;2022-07-05T14:44:23;33.10;36.70
20526;DHT22;10421;49.142;9.232;2022-07-05T14:46:50;33.10;36.70
20526;DHT22;10421;49.142;9.232;2022-07-05T14:49:16;33.20;36.30
20526;DHT22;10421;49.142;9.232;2022-07-05T14:51:43;33.20;35.70
20526;DHT22;10421;49.142;9.232;2022-07-05T14:54:10;33.20;34.70
20526;DHT22;10421;49.142;9.232;2022-07-05T14:56:37;33.30;34.60
20526;DHT22;10421;49.142;9.232;2022-07-05T14:59:04;33.30;34.60
20526;DHT22;10421;49.142;9.232;2022-07-05T15:01:33;33.30;35.00
20526;DHT22;10421;49.142;9.232;2022-07-05T15:03:59;33.30;35.00
20526;DHT22;10421;49.142;9.232;2022-07-05T15:06:26;33.30;34.90
20526;DHT22;10421;49.142;9.232;2022-07-05T15:08:53;33.20;34.50
20526;DHT22;10421;49.142;9.232;2022-07-05T15:11:20;33.20;35.10
20526;DHT22;10421;49.142;9.232;2022-07-05T15:13:47;33.10;35.30
20526;DHT22;10421;49.142;9.232;2022-07-05T15:16:15;33.00;35.50
20526;DHT22;10421;49.142;9.232;2022-07-05T15:18:43;32.90;35.60
20526;DHT22;10421;49.142;9.232;2022-07-05T15:21:10;32.80;35.50
20526;DHT22;10421;49.142;9.232;2022-07-05T15:23:37;32.80;35.90
20526;DHT22;10421;49.142;9.232;2022-07-05T15:26:04;32.80;36.10
20526;DHT22;10421;49.142;9.232;2022-07-05T15:28:31;32.90;36.50
20526;DHT22;10421;49.142;9.232;2022-07-05T15:30:58;32.90;36.60
20526;DHT22;10421;49.142;9.232;2022-07-05T15:33:25;32.80;36.50
20526;DHT22;10421;49.142;9.232;2022-07-05T15:35:57;32.90;36.60
20526;DHT22;10421;49.142;9.232;2022-07-05T15:38:24;32.90;36.50